createdAt,value
2023-04-02T00:01:19.354Z,4.66
2023-04-02T00:03:53.730Z,4.64
2023-04-02T00:06:30.360Z,4.66
2023-04-02T00:08:59.594Z,4.65
2023-04-02T00:11:36.010Z,4.66
2023-04-02T00:14:04.019Z,4.65
2023-04-02T00:16:31.216Z,4.65
2023-04-02T00:19:03.389Z,4.67
2023-04-02T00:21:32.434Z,4.66
2023-04-02T00:24:00.188Z,4.64
2023-04-02T00:26:35.131Z,4.65
2023-04-02T00:29:02.650Z,4.64
2023-04-02T00:31:29.700Z,4.64
2023-04-02T00:33:56.719Z,4.65
2023-04-02T00:36:23.688Z,4.66
2023-04-02T00:38:50.731Z,4.65
2023-04-02T00:41:23.403Z,4.66
2023-04-02T00:43:54.689Z,4.64
2023-04-02T00:46:24.372Z,4.65
2023-04-02T00:49:09.853Z,4.64
2023-04-02T00:51:38.805Z,4.65
2023-04-02T00:54:06.690Z,4.66
2023-04-02T00:56:54.504Z,4.65
2023-04-02T00:59:28.408Z,4.65
2023-04-02T01:02:14.937Z,4.66
2023-04-02T01:04:42.115Z,4.67
2023-04-02T01:07:10.606Z,4.68
2023-04-02T01:09:59.112Z,4.70
2023-04-02T01:12:41.612Z,4.71
2023-04-02T01:15:19.946Z,4.76
2023-04-02T01:17:59.013Z,4.74
2023-04-02T01:21:03.529Z,4.71
2023-04-02T01:23:30.344Z,4.70
2023-04-02T01:26:04.669Z,4.70
2023-04-02T01:29:08.979Z,4.70
2023-04-02T01:31:36.021Z,4.69
2023-04-02T01:34:04.213Z,4.69
2023-04-02T01:36:45.664Z,4.71
2023-04-02T01:39:25.315Z,4.73
2023-04-02T01:42:07.846Z,4.71
2023-04-02T01:45:02.524Z,4.70
2023-04-02T01:47:30.409Z,4.69
2023-04-02T01:50:01.283Z,4.70
2023-04-02T01:52:40.691Z,4.70
2023-04-02T01:55:13.281Z,4.68
2023-04-02T01:57:42.245Z,4.67
2023-04-02T02:00:14.717Z,4.67
2023-04-02T02:02:44.031Z,4.67
2023-04-02T02:05:15.768Z,4.67
2023-04-02T02:07:45.562Z,4.65
2023-04-02T02:10:16.875Z,4.68
2023-04-02T02:12:43.969Z,4.68
2023-04-02T02:15:18.139Z,4.72
2023-04-02T02:17:45.232Z,4.71
2023-04-02T02:20:12.973Z,4.71
2023-04-02T02:22:42.112Z,4.70
2023-04-02T02:25:16.044Z,4.70
2023-04-02T02:28:01.569Z,4.69
2023-04-02T02:30:53.324Z,4.67
2023-04-02T02:33:39.734Z,4.65
2023-04-02T02:36:29.524Z,4.64
2023-04-02T02:39:02.166Z,4.62
2023-04-02T02:41:41.970Z,4.61
2023-04-02T02:44:09.632Z,4.60
2023-04-02T02:46:39.507Z,4.66
2023-04-02T02:49:10.527Z,4.69
2023-04-02T02:52:03.760Z,4.70
2023-04-02T02:54:55.662Z,4.67
2023-04-02T02:57:30.039Z,4.68
2023-04-02T02:59:58.052Z,4.69
2023-04-02T03:02:25.504Z,4.69
2023-04-02T03:04:54.117Z,4.71
2023-04-02T03:07:25.723Z,4.72
2023-04-02T03:10:00.674Z,4.69
2023-04-02T03:12:30.432Z,4.71
2023-04-02T03:15:28.968Z,4.70
2023-04-02T03:17:59.853Z,4.68
2023-04-02T03:20:48.567Z,4.66
2023-04-02T03:23:30.845Z,4.64
2023-04-02T03:26:16.005Z,4.58
2023-04-02T03:29:14.445Z,4.56
2023-04-02T03:31:48.102Z,4.57
2023-04-02T03:34:21.550Z,4.54
2023-04-02T03:36:57.856Z,4.53
2023-04-02T03:40:00.453Z,4.48
2023-04-02T03:42:29.874Z,4.48
2023-04-02T03:45:05.678Z,4.45
2023-04-02T03:47:38.717Z,4.45
2023-04-02T03:50:21.713Z,4.42
2023-04-02T03:52:49.645Z,4.39
2023-04-02T03:55:25.962Z,4.39
2023-04-02T03:57:55.815Z,4.36
2023-04-02T04:00:27.202Z,4.34
2023-04-02T04:02:59.383Z,4.35
2023-04-02T04:05:34.029Z,4.34
2023-04-02T04:08:04.462Z,4.33
2023-04-02T04:10:31.872Z,4.32
2023-04-02T04:13:05.089Z,4.31
2023-04-02T04:15:54.544Z,4.33
2023-04-02T04:18:46.691Z,4.31
2023-04-02T04:21:22.856Z,4.31
2023-04-02T04:23:50.791Z,4.32
2023-04-02T04:26:21.382Z,4.33
2023-04-02T04:29:17.641Z,4.32
2023-04-02T04:31:55.990Z,4.30
2023-04-02T04:34:42.431Z,4.30
2023-04-02T04:37:29.273Z,4.31
2023-04-02T04:40:16.678Z,4.30
2023-04-02T04:42:43.902Z,4.27
2023-04-02T04:45:17.171Z,4.28
2023-04-02T04:47:50.624Z,4.27
2023-04-02T04:50:17.402Z,4.28
2023-04-02T04:52:44.656Z,4.30
2023-04-02T04:55:38.215Z,4.32
2023-04-02T04:58:24.780Z,4.31
2023-04-02T05:01:08.274Z,4.32
2023-04-02T05:03:39.899Z,4.30
2023-04-02T05:06:33.393Z,4.32
2023-04-02T05:09:07.499Z,4.34
2023-04-02T05:11:47.286Z,4.34
2023-04-02T05:14:24.896Z,4.35
2023-04-02T05:17:15.797Z,4.37
2023-04-02T05:19:48.229Z,4.39
2023-04-02T05:22:18.006Z,4.41
2023-04-02T05:24:51.355Z,4.48
2023-04-02T05:27:49.866Z,4.50
2023-04-02T05:30:29.018Z,4.52
2023-04-02T05:33:05.148Z,4.54
2023-04-02T05:35:34.676Z,4.55
2023-04-02T05:38:02.409Z,4.54
2023-04-02T05:40:40.210Z,4.53
2023-04-02T05:43:11.114Z,4.50
2023-04-02T05:45:43.557Z,4.53
2023-04-02T05:48:17.553Z,4.56
2023-04-02T05:50:46.190Z,4.54
2023-04-02T05:53:36.259Z,4.56
2023-04-02T05:56:08.262Z,4.58
2023-04-02T05:58:53.352Z,4.58
2023-04-02T06:01:48.366Z,4.59
2023-04-02T06:04:45.002Z,4.57
2023-04-02T06:07:18.484Z,4.57
2023-04-02T06:09:57.226Z,4.61
2023-04-02T06:12:34.906Z,4.63
2023-04-02T06:15:07.766Z,4.68
2023-04-02T06:17:55.024Z,4.71
2023-04-02T06:20:25.524Z,4.72
2023-04-02T06:23:11.358Z,4.76
2023-04-02T06:25:52.383Z,4.77
2023-04-02T06:28:42.288Z,4.77
2023-04-02T06:31:38.371Z,4.80
2023-04-02T06:34:25.110Z,4.82
2023-04-02T06:37:14.127Z,4.84
2023-04-02T06:39:46.111Z,4.84
2023-04-02T06:45:42.944Z,4.81
2023-04-02T06:48:35.456Z,4.82
2023-04-02T06:51:15.104Z,4.88
2023-04-02T06:53:51.726Z,4.94
2023-04-02T06:56:47.832Z,4.97
2023-04-02T06:59:30.506Z,5.03
2023-04-02T07:02:27.502Z,5.03
2023-04-02T07:05:13.318Z,5.01
2023-04-02T07:08:09.113Z,5.01
2023-04-02T07:10:59.848Z,5.05
2023-04-02T07:13:37.055Z,5.11
2023-04-02T07:16:17.620Z,5.13
2023-04-02T07:18:47.675Z,5.16
2023-04-02T07:21:17.418Z,5.17
2023-04-02T07:23:52.666Z,5.20
2023-04-02T07:26:26.330Z,5.21
2023-04-02T07:28:57.870Z,5.19
2023-04-02T07:31:30.734Z,5.16
2023-04-02T07:34:03.380Z,5.15
2023-04-02T07:36:34.169Z,5.13
2023-04-02T07:39:05.599Z,5.14
2023-04-02T07:41:36.063Z,5.16
2023-04-02T07:44:09.362Z,5.18
2023-04-02T07:46:53.136Z,5.19
2023-04-02T07:49:24.424Z,5.19
2023-04-02T07:51:55.971Z,5.21
2023-04-02T07:54:29.299Z,5.23
2023-04-02T07:56:58.422Z,5.20
2023-04-02T07:59:30.533Z,5.21
2023-04-02T08:01:59.698Z,5.20
2023-04-02T08:04:32.226Z,5.26
2023-04-02T08:07:02.711Z,5.28
2023-04-02T08:09:32.619Z,5.29
2023-04-02T08:12:01.738Z,5.30
2023-04-02T08:14:30.905Z,5.29
2023-04-02T08:19:57.776Z,5.25
2023-04-02T08:22:28.541Z,5.26
2023-04-02T08:24:58.464Z,5.26
2023-04-02T08:27:28.152Z,5.26
2023-04-02T08:29:57.681Z,5.27
2023-04-02T08:32:30.154Z,5.30
2023-04-02T08:34:59.995Z,5.32
2023-04-02T08:37:30.061Z,5.34
2023-04-02T08:40:00.197Z,5.37
2023-04-02T08:42:46.882Z,5.38
2023-04-02T08:45:38.276Z,5.39
2023-04-02T08:48:10.207Z,5.43
2023-04-02T08:50:41.769Z,5.43
2023-04-02T08:53:26.281Z,5.45
2023-04-02T08:56:18.249Z,5.45
2023-04-02T08:58:57.015Z,5.49
2023-04-02T09:01:52.635Z,5.53
2023-04-02T09:04:23.891Z,5.55
2023-04-02T09:06:55.237Z,5.63
2023-04-02T09:09:28.323Z,5.68
2023-04-02T09:12:05.345Z,5.71
2023-04-02T09:14:47.789Z,5.73
2023-04-02T09:17:25.260Z,5.76
2023-04-02T09:20:06.856Z,5.78
2023-04-02T09:22:37.162Z,5.80
2023-04-02T09:25:16.000Z,5.85
2023-04-02T09:27:47.685Z,5.92
2023-04-02T09:30:32.905Z,5.94
2023-04-02T09:33:08.210Z,5.99
2023-04-02T09:35:54.342Z,6.06
2023-04-02T09:38:34.217Z,6.10
2023-04-02T09:41:07.974Z,6.18
2023-04-02T09:43:40.173Z,6.28
2023-04-02T09:46:27.608Z,6.37
2023-04-02T09:48:59.753Z,6.38
2023-04-02T09:51:31.880Z,6.42
2023-04-02T09:54:04.814Z,6.45
2023-04-02T09:56:35.544Z,6.51
2023-04-02T09:59:06.205Z,6.56
2023-04-02T10:01:37.799Z,6.63
2023-04-02T10:04:06.121Z,6.71
2023-04-02T10:06:33.751Z,6.77
2023-04-02T10:09:28.945Z,6.81
2023-04-02T10:11:56.244Z,6.83
2023-04-02T10:14:26.030Z,6.88
2023-04-02T10:16:58.199Z,6.93
2023-04-02T10:19:33.484Z,6.99
2023-04-02T10:22:02.921Z,7.05
2023-04-02T10:24:29.918Z,7.16
2023-04-02T10:27:22.592Z,7.28
2023-04-02T10:30:11.254Z,7.38
2023-04-02T10:32:50.005Z,7.51
2023-04-02T10:35:21.638Z,7.62
2023-04-02T10:38:07.212Z,7.72
2023-04-02T10:40:40.145Z,7.77
2023-04-02T10:43:37.453Z,7.80
2023-04-02T10:46:27.662Z,7.85
2023-04-02T10:49:13.815Z,7.88
2023-04-02T10:51:48.684Z,7.90
2023-04-02T10:54:24.600Z,7.92
2023-04-02T10:56:53.331Z,7.95
2023-04-02T10:59:24.840Z,7.94
2023-04-02T11:01:51.821Z,7.97
2023-04-02T11:04:26.814Z,7.97
2023-04-02T11:07:11.192Z,8.04
2023-04-02T11:09:42.843Z,8.12
2023-04-02T11:12:17.211Z,8.16
2023-04-02T11:14:44.199Z,8.23
2023-04-02T11:17:12.466Z,8.35
2023-04-02T11:19:39.571Z,8.50
2023-04-02T11:22:17.703Z,8.66
2023-04-02T11:24:46.823Z,8.79
2023-04-02T11:27:33.682Z,8.91
2023-04-02T11:30:15.991Z,9.04
2023-04-02T11:32:49.324Z,9.17
2023-04-02T11:35:31.453Z,9.36
2023-04-02T11:38:12.638Z,9.47
2023-04-02T11:40:53.044Z,9.47
2023-04-02T11:43:35.974Z,9.43
2023-04-02T11:46:29.312Z,9.44
2023-04-02T11:49:37.939Z,9.44
2023-04-02T11:52:11.936Z,9.42
2023-04-02T11:54:39.595Z,9.37
2023-04-02T11:57:30.743Z,9.33
2023-04-02T12:00:26.415Z,9.35
2023-04-02T12:02:59.774Z,9.40
2023-04-02T12:05:27.568Z,9.44
2023-04-02T12:07:57.374Z,9.47
2023-04-02T12:10:25.032Z,9.48
2023-04-02T12:12:52.000Z,9.48
2023-04-02T12:15:32.747Z,9.48
2023-04-02T12:18:11.675Z,9.48
2023-04-02T12:20:38.581Z,9.49
2023-04-02T12:23:05.599Z,9.48
2023-04-02T12:25:40.319Z,9.51
2023-04-02T12:28:10.626Z,9.54
2023-04-02T12:30:38.249Z,9.60
2023-04-02T12:33:38.391Z,9.65
2023-04-02T12:36:10.070Z,9.69
2023-04-02T12:38:44.828Z,9.76
2023-04-02T12:41:24.296Z,9.80
2023-04-02T12:44:01.779Z,9.82
2023-04-02T12:46:29.954Z,9.83
2023-04-02T12:49:20.635Z,9.85
2023-04-02T12:51:48.486Z,9.87
2023-04-02T12:54:17.585Z,9.88
2023-04-02T12:56:44.504Z,9.89
2023-04-02T12:59:43.741Z,9.92
2023-04-02T13:02:21.857Z,9.93
2023-04-02T13:04:53.268Z,9.93
2023-04-02T13:07:21.787Z,9.94
2023-04-02T13:09:55.760Z,9.91
2023-04-02T13:12:36.916Z,9.89
2023-04-02T13:15:09.000Z,9.87
2023-04-02T13:17:43.730Z,9.84
2023-04-02T13:20:35.966Z,9.77
2023-04-02T13:23:30.722Z,9.72
2023-04-02T13:25:58.675Z,9.71
2023-04-02T13:28:25.615Z,9.68
2023-04-02T13:30:52.504Z,9.65
2023-04-02T13:33:20.483Z,9.63
2023-04-02T13:35:47.480Z,9.63
2023-04-02T13:38:14.437Z,9.60
2023-04-02T13:40:42.668Z,9.58
2023-04-02T13:43:15.704Z,9.55
2023-04-02T13:45:42.694Z,9.56
2023-04-02T13:48:10.405Z,9.56
2023-04-02T13:50:37.589Z,9.56
2023-04-02T13:53:07.814Z,9.58
2023-04-02T13:55:38.296Z,9.56
2023-04-02T13:58:05.467Z,9.59
2023-04-02T14:00:32.286Z,9.60
2023-04-02T14:03:02.839Z,9.61
2023-04-02T14:05:41.784Z,9.62
2023-04-02T14:08:22.270Z,9.63
2023-04-02T14:11:01.743Z,9.62
2023-04-02T14:14:03.621Z,9.64
2023-04-02T14:16:45.810Z,9.64
2023-04-02T14:19:27.920Z,9.64
2023-04-02T14:22:00.951Z,9.62
2023-04-02T14:24:41.148Z,9.59
2023-04-02T14:27:17.368Z,9.58
2023-04-02T14:29:44.164Z,9.52
2023-04-02T14:32:40.556Z,9.48
2023-04-02T14:35:24.700Z,9.41
2023-04-02T14:38:13.314Z,9.39
2023-04-02T14:40:50.249Z,9.37
2023-04-02T14:43:23.020Z,9.34
2023-04-02T14:46:04.126Z,9.32
2023-04-02T14:48:44.573Z,9.29
2023-04-02T14:51:40.968Z,9.26
2023-04-02T14:54:53.114Z,9.23
2023-04-02T14:57:31.664Z,9.20
2023-04-02T15:00:04.025Z,9.17
2023-04-02T15:02:30.942Z,9.13
2023-04-02T15:05:03.899Z,9.11
2023-04-02T15:07:38.413Z,9.07
2023-04-02T15:10:17.309Z,9.06
2023-04-02T15:12:45.676Z,9.02
2023-04-02T15:15:52.523Z,8.98
2023-04-02T15:18:19.559Z,8.94
2023-04-02T15:20:57.648Z,8.89
2023-04-02T15:23:49.130Z,8.83
2023-04-02T15:26:37.443Z,8.78
2023-04-02T15:29:25.831Z,8.74
2023-04-02T15:31:59.513Z,8.69
2023-04-02T15:34:32.386Z,8.67
2023-04-02T15:37:07.600Z,8.64
2023-04-02T15:40:22.213Z,8.62
2023-04-02T15:42:58.621Z,8.61
2023-04-02T15:45:29.390Z,8.58
2023-04-02T15:48:12.090Z,8.56
2023-04-02T15:51:16.663Z,8.52
2023-04-02T15:54:08.081Z,8.49
2023-04-02T15:56:51.122Z,8.44
2023-04-02T15:59:49.545Z,8.40
2023-04-02T16:02:39.790Z,8.35
2023-04-02T16:05:42.208Z,8.29
2023-04-02T16:08:24.246Z,8.21
2023-04-02T16:10:51.512Z,8.14
2023-04-02T16:13:28.520Z,8.08
2023-04-02T16:16:33.057Z,8.04
2023-04-02T16:19:02.885Z,8.00
2023-04-02T16:21:33.164Z,7.94
2023-04-02T16:24:00.190Z,7.92
2023-04-02T16:26:42.398Z,7.90
2023-04-02T16:29:24.213Z,7.87
2023-04-02T16:32:15.440Z,7.85
2023-04-02T16:34:51.383Z,7.82
2023-04-02T16:37:31.700Z,7.78
2023-04-02T16:40:22.308Z,7.74
2023-04-02T16:42:59.370Z,7.67
2023-04-02T16:45:45.058Z,7.60
2023-04-02T16:48:30.492Z,7.50
2023-04-02T16:51:21.241Z,7.43
2023-04-02T16:54:09.191Z,7.34
2023-04-02T16:56:48.055Z,7.30
2023-04-02T16:59:38.489Z,7.26
2023-04-02T17:02:20.721Z,7.23
2023-04-02T17:04:53.476Z,7.19
2023-04-02T17:07:27.525Z,7.15
2023-04-02T17:10:32.511Z,7.10
2023-04-02T17:13:03.677Z,7.07
2023-04-02T17:15:37.159Z,7.04
2023-04-02T17:18:24.879Z,6.97
2023-04-02T17:20:52.102Z,6.93
2023-04-02T17:23:19.592Z,6.88
2023-04-02T17:25:53.361Z,6.84
2023-04-02T17:28:25.705Z,6.81
2023-04-02T17:30:55.893Z,6.77
2023-04-02T17:33:26.748Z,6.75
2023-04-02T17:35:59.776Z,6.70
2023-04-02T17:38:38.771Z,6.67
2023-04-02T17:41:23.489Z,6.66
2023-04-02T17:43:58.331Z,6.63
2023-04-02T17:46:38.210Z,6.61
2023-04-02T17:49:23.171Z,6.56
2023-04-02T17:52:01.064Z,6.54
2023-04-02T17:55:25.365Z,6.48
2023-04-02T17:58:07.972Z,6.42
2023-04-02T18:00:57.705Z,6.39
2023-04-02T18:03:29.561Z,6.37
2023-04-02T18:06:15.892Z,6.38
2023-04-02T18:09:18.103Z,6.34
2023-04-02T18:12:25.783Z,6.28
2023-04-02T18:15:19.009Z,6.24
2023-04-02T18:17:54.170Z,6.22
2023-04-02T18:20:23.464Z,6.19
2023-04-02T18:23:14.973Z,6.18
2023-04-02T18:25:46.684Z,6.14
2023-04-02T18:28:24.669Z,6.11
2023-04-02T18:31:06.696Z,6.08
2023-04-02T18:34:21.151Z,6.07
2023-04-02T18:37:13.492Z,6.04
2023-04-02T18:40:00.090Z,6.08
2023-04-02T18:42:39.250Z,6.05
2023-04-02T18:45:17.907Z,6.03
2023-04-02T18:47:53.764Z,6.01
2023-04-02T18:50:35.321Z,6.01
2023-04-02T18:53:19.460Z,5.96
2023-04-02T18:55:57.895Z,5.96
2023-04-02T18:58:33.703Z,5.93
2023-04-02T19:01:00.710Z,5.93
2023-04-02T19:03:37.282Z,5.91
2023-04-02T19:06:11.898Z,5.89
2023-04-02T19:09:01.129Z,5.88
2023-04-02T19:11:31.669Z,5.85
2023-04-02T19:13:59.924Z,5.83
2023-04-02T19:16:35.981Z,5.81
2023-04-02T19:19:17.643Z,5.76
2023-04-02T19:22:03.498Z,5.71
2023-04-02T19:24:42.578Z,5.67
2023-04-02T19:27:27.526Z,5.66
2023-04-02T19:30:27.904Z,5.64
2023-04-02T19:33:25.055Z,5.64
2023-04-02T19:35:58.925Z,5.62
2023-04-02T19:38:55.002Z,5.63
2023-04-02T19:41:48.245Z,5.63
2023-04-02T19:44:15.554Z,5.64
2023-04-02T19:46:42.640Z,5.65
2023-04-02T19:49:26.537Z,5.73
2023-04-02T19:51:53.739Z,5.73
2023-04-02T19:54:20.559Z,5.71
2023-04-02T19:56:47.876Z,5.71
2023-04-02T19:59:18.063Z,5.72
2023-04-02T20:01:45.571Z,5.67
2023-04-02T20:04:12.589Z,5.64
2023-04-02T20:06:39.702Z,5.61
2023-04-02T20:09:08.215Z,5.61
2023-04-02T20:11:36.251Z,5.60
2023-04-02T20:14:03.193Z,5.54
2023-04-02T20:16:30.262Z,5.52
2023-04-02T20:18:57.764Z,5.50
2023-04-02T20:21:24.612Z,5.52
2023-04-02T20:23:55.342Z,5.52
2023-04-02T20:26:22.782Z,5.53
2023-04-02T20:28:49.880Z,5.59
2023-04-02T20:31:18.051Z,5.61
2023-04-02T20:33:45.464Z,5.64
2023-04-02T20:36:16.354Z,5.68
2023-04-02T20:38:43.569Z,5.76
2023-04-02T20:41:10.478Z,5.76
2023-04-02T20:43:40.544Z,5.74
2023-04-02T20:46:09.521Z,5.76
2023-04-02T20:48:37.905Z,5.80
2023-04-02T20:51:06.154Z,5.84
2023-04-02T20:53:34.501Z,5.86
2023-04-02T20:56:08.944Z,5.84
2023-04-02T20:58:36.224Z,5.83
2023-04-02T21:01:10.325Z,5.80
2023-04-02T21:03:37.427Z,5.76
2023-04-02T21:06:04.432Z,5.71
2023-04-02T21:08:31.276Z,5.66
2023-04-02T21:11:02.754Z,5.61
2023-04-02T21:13:30.980Z,5.57
2023-04-02T21:15:58.324Z,5.61
2023-04-02T21:18:25.435Z,5.65
2023-04-02T21:21:03.464Z,5.64
2023-04-02T21:23:30.864Z,5.65
2023-04-02T21:25:58.823Z,5.61
2023-04-02T21:28:25.837Z,5.59
2023-04-02T21:30:52.782Z,5.56
2023-04-02T21:33:19.737Z,5.53
2023-04-02T21:35:46.685Z,5.53
2023-04-02T21:38:13.626Z,5.59
2023-04-02T21:40:40.540Z,5.57
2023-04-02T21:43:07.448Z,5.53
2023-04-02T21:45:34.516Z,5.53
2023-04-02T21:48:01.714Z,5.52
2023-04-02T21:50:28.701Z,5.55
2023-04-02T21:52:55.669Z,5.59
2023-04-02T21:55:22.617Z,5.60
2023-04-02T21:57:49.538Z,5.65
2023-04-02T22:00:16.608Z,5.67
2023-04-02T22:02:43.487Z,5.68
2023-04-02T22:05:10.604Z,5.71
2023-04-02T22:07:37.534Z,5.71
2023-04-02T22:10:04.742Z,5.69
2023-04-02T22:12:31.716Z,5.66
2023-04-02T22:14:58.707Z,5.65
2023-04-02T22:17:25.591Z,5.61
2023-04-02T22:19:52.516Z,5.62
2023-04-02T22:22:19.591Z,5.63
2023-04-02T22:24:46.469Z,5.64
2023-04-02T22:27:13.380Z,5.68
2023-04-02T22:29:40.368Z,5.72
2023-04-02T22:32:07.368Z,5.74
2023-04-02T22:34:34.729Z,5.80
2023-04-02T22:37:01.734Z,5.82
2023-04-02T22:39:30.941Z,5.83
2023-04-02T22:41:57.845Z,5.84
2023-04-02T22:44:24.706Z,5.83
2023-04-02T22:46:51.658Z,5.84
2023-04-02T22:49:19.492Z,5.86
2023-04-02T22:51:46.698Z,5.87
2023-04-02T22:54:13.633Z,5.91
2023-04-02T22:56:41.198Z,6.00
2023-04-02T22:59:08.096Z,6.03
2023-04-02T23:01:35.665Z,6.06
2023-04-02T23:04:04.993Z,6.03
2023-04-02T23:06:32.110Z,5.93
2023-04-02T23:08:58.997Z,5.85
2023-04-02T23:11:27.549Z,5.80
2023-04-02T23:13:55.416Z,5.74
2023-04-02T23:16:23.057Z,5.67
2023-04-02T23:18:50.232Z,5.64
2023-04-02T23:21:17.520Z,5.59
2023-04-02T23:23:45.745Z,5.59
2023-04-02T23:26:17.978Z,5.58
2023-04-02T23:28:44.952Z,5.56
2023-04-02T23:31:13.590Z,5.58
2023-04-02T23:33:40.521Z,5.59
2023-04-02T23:36:28.802Z,5.56
2023-04-02T23:38:58.023Z,5.53
2023-04-02T23:41:27.019Z,5.51
2023-04-02T23:43:55.010Z,5.49
2023-04-02T23:46:22.939Z,5.46
2023-04-02T23:48:50.895Z,5.44
2023-04-02T23:51:18.041Z,5.42
2023-04-02T23:53:44.962Z,5.41
2023-04-02T23:56:11.972Z,5.38
2023-04-02T23:58:38.964Z,5.34
